Isla Mujeres, Mexico

6:45 PM EST on February 11, 2016 (GMT -0500)
Isla Mujeres - Punta Sur | | Change Station
CLOSE
Current Station
Personal Weather Station
Location: Quintana Roo, QUINTANA ROO
Elevation: 30 ft
Nearby Weather Stations

Elev 30 ft 21.21 °N, 86.72 °W | Updated 10 minutes ago

Mostly Cloudy
Mostly Cloudy
73.0 °F
Feels Like 73.0 °F
N
11.4
Wind Variable Wind from NNW

Today
High -- | Low -- °F
--% Chance of Precip.
Yesterday
High -- | Low -- °F
Precip. -- in
Pressure 30.19 in
Visibility 7.0 miles
Clouds Mostly Cloudy 1500 ft
Mostly Cloudy 8000 ft
Dew Point 73 °F
Humidity 99%
Rainfall 0.00 in
Snow Depth Not available.
7:19 AM 6:42 PM
Waxing Crescent, 15% visible
METAR MMUN 112248Z 02004KT 7SM BKN015 BKN080 22/16 A3019 RMK 8/460 OCNL DROPS
Pressure 30.19 in
Visibility 7.0 miles
Clouds Mostly Cloudy 1500 ft
Mostly Cloudy 8000 ft
Dew Point 73 °F
Humidity 99%
Rainfall 0.00 in
Snow Depth Not available.
7:19 AM 6:42 PM
Waxing Crescent, 15% visible
METAR MMUN 112248Z 02004KT 7SM BKN015 BKN080 22/16 A3019 RMK 8/460 OCNL DROPS

10-Day Weather Forecast

No radar image for this location.
×

Almanac

Astronomy

Feb. 11, 2016 Rise Set
Actual Time
Civil Twilight
Nautical Twilight
Astronomical Twilight
Moon
Length of Visible Light
Length of Day
Tomorrow will be .
, % of the Moon is Illuminated

Today's Extremes

Country Highs Country Lows

Community

WunderPhotos

Upload Photos

1,892,180 photos uploaded!

WunderBlog® & News

Nearby

Air Quality

  Air Quality AQ Index Pollutant
Not available.

Snow Depth

Station Depth Elevation

Earthquake Activity

City Distance Mag. Time & Date
Minimum magnitude displayed is 2.5.

Coastal Water Temperatures

Place Temperature

Stations

Nearby Weather Stations

Station Location Temp. Windchill Dew Point Humidity Wind Precip. Elev Updated Type